Waterloo Regional Airport Waterloo US
ICAO: KALO
IATA: ALO
Category: Medium
Scheduled Services: Yes

Elevation: 873 ft
TransAlt. 18000 ft.

Airport Communications:
APP/DEP:118.9
ATIS:120.65
CTAF:118.1
GND:121.9
ARNG OPS:36.7
FORT DODGE RDO:122.05
TWR:118.1
UNICOM:122.95

KALO Zoom In..

Runways:

(A) RW 06 length 5400 ft width 130 ft
---- / hdg 65

(B) RW 12 length 8399 ft width 150 ft
ILS 111.70 / hdg 125

(C) RW 18 length 6003 ft width 150 ft
---- / hdg 185

(D) RW 24 length 5400 ft width 130 ft
---- / hdg 245

(E) RW 30 length 8399 ft width 150 ft
---- / hdg 305

(F) RW 36 length 6003 ft width 150 ft
---- / hdg 5

Location; KALO
Day. 26 / Time. 10.54 Zulu
* Altimeter: 29.87
* Temperature: 18° c. 64.4°f.
* Wind from: 120° Speed 04 kn.
Dewpoint: 16° c.
Visibility: 8 Statute Miles.
Clouds: Clear (automated report).

KALO 261054Z AUTO 12004KT 8SM CLR 18/16 A2987 RMK AO2 SLP110 T01780161


Wind From 120°
Speed 04 kn.

 
 
jpsmedia worldairports.se 2020   terms of use